sensor_id;sensor_type;location;lat;lon;timestamp;temperature;humidity
16267;DHT22;8241;48.786;9.250;2022-08-23T00:01:47;19.70;95.70
16267;DHT22;8241;48.786;9.250;2022-08-23T00:04:16;19.70;95.60
16267;DHT22;8241;48.786;9.250;2022-08-23T00:06:45;19.70;95.70
16267;DHT22;8241;48.786;9.250;2022-08-23T00:09:14;19.70;95.80
16267;DHT22;8241;48.786;9.250;2022-08-23T00:11:43;19.60;95.70
16267;DHT22;8241;48.786;9.250;2022-08-23T00:14:14;19.70;95.70
16267;DHT22;8241;48.786;9.250;2022-08-23T00:16:42;19.60;95.80
16267;DHT22;8241;48.786;9.250;2022-08-23T00:19:11;19.60;95.80
16267;DHT22;8241;48.786;9.250;2022-08-23T00:21:39;19.60;96.10
16267;DHT22;8241;48.786;9.250;2022-08-23T00:24:07;19.50;95.60
16267;DHT22;8241;48.786;9.250;2022-08-23T00:26:57;19.50;95.70
16267;DHT22;8241;48.786;9.250;2022-08-23T00:29:28;19.40;95.70
16267;DHT22;8241;48.786;9.250;2022-08-23T00:31:57;19.40;95.90
16267;DHT22;8241;48.786;9.250;2022-08-23T00:34:25;19.30;96.10
16267;DHT22;8241;48.786;9.250;2022-08-23T00:36:53;19.30;96.20
16267;DHT22;8241;48.786;9.250;2022-08-23T00:39:20;19.30;96.60
16267;DHT22;8241;48.786;9.250;2022-08-23T00:41:48;19.20;96.50
16267;DHT22;8241;48.786;9.250;2022-08-23T00:44:20;19.10;96.80
16267;DHT22;8241;48.786;9.250;2022-08-23T00:47:07;18.90;97.00
16267;DHT22;8241;48.786;9.250;2022-08-23T00:50:01;18.80;97.20
16267;DHT22;8241;48.786;9.250;2022-08-23T00:52:33;18.70;97.50
16267;DHT22;8241;48.786;9.250;2022-08-23T00:55:02;18.70;97.40
16267;DHT22;8241;48.786;9.250;2022-08-23T00:57:30;18.80;97.30
16267;DHT22;8241;48.786;9.250;2022-08-23T00:59:58;18.80;97.30
16267;DHT22;8241;48.786;9.250;2022-08-23T01:02:26;18.80;97.30
16267;DHT22;8241;48.786;9.250;2022-08-23T01:04:55;18.80;97.50
16267;DHT22;8241;48.786;9.250;2022-08-23T01:07:33;18.70;97.50
16267;DHT22;8241;48.786;9.250;2022-08-23T01:10:08;18.70;97.60
16267;DHT22;8241;48.786;9.250;2022-08-23T01:12:38;18.70;97.80
16267;DHT22;8241;48.786;9.250;2022-08-23T01:15:12;18.60;97.90
16267;DHT22;8241;48.786;9.250;2022-08-23T01:17:46;18.60;98.20
16267;DHT22;8241;48.786;9.250;2022-08-23T01:20:17;18.50;98.30
16267;DHT22;8241;48.786;9.250;2022-08-23T01:22:48;18.50;98.40
16267;DHT22;8241;48.786;9.250;2022-08-23T01:25:20;18.50;98.30
16267;DHT22;8241;48.786;9.250;2022-08-23T01:27:49;18.50;98.40
16267;DHT22;8241;48.786;9.250;2022-08-23T01:30:19;18.50;98.50
16267;DHT22;8241;48.786;9.250;2022-08-23T01:32:49;18.60;98.50
16267;DHT22;8241;48.786;9.250;2022-08-23T01:35:18;18.60;98.50
16267;DHT22;8241;48.786;9.250;2022-08-23T01:37:45;18.50;98.20
16267;DHT22;8241;48.786;9.250;2022-08-23T01:40:12;18.50;98.30
16267;DHT22;8241;48.786;9.250;2022-08-23T01:42:42;18.50;98.40
16267;DHT22;8241;48.786;9.250;2022-08-23T01:45:12;18.60;98.30
16267;DHT22;8241;48.786;9.250;2022-08-23T01:47:39;18.50;98.30
16267;DHT22;8241;48.786;9.250;2022-08-23T01:50:08;18.40;98.40
16267;DHT22;8241;48.786;9.250;2022-08-23T01:52:36;18.30;98.50
16267;DHT22;8241;48.786;9.250;2022-08-23T01:55:05;18.30;98.60
16267;DHT22;8241;48.786;9.250;2022-08-23T01:57:33;18.30;98.80
16267;DHT22;8241;48.786;9.250;2022-08-23T02:00:06;18.30;98.80
16267;DHT22;8241;48.786;9.250;2022-08-23T02:02:38;18.20;98.90
16267;DHT22;8241;48.786;9.250;2022-08-23T02:05:07;18.20;98.80
16267;DHT22;8241;48.786;9.250;2022-08-23T02:07:34;18.30;98.50
16267;DHT22;8241;48.786;9.250;2022-08-23T02:10:01;18.30;98.60
16267;DHT22;8241;48.786;9.250;2022-08-23T02:12:28;18.10;98.50
16267;DHT22;8241;48.786;9.250;2022-08-23T02:15:08;18.10;98.70
16267;DHT22;8241;48.786;9.250;2022-08-23T02:17:38;18.10;98.50
16267;DHT22;8241;48.786;9.250;2022-08-23T02:20:06;18.10;98.70
16267;DHT22;8241;48.786;9.250;2022-08-23T02:22:34;18.10;98.80
16267;DHT22;8241;48.786;9.250;2022-08-23T02:25:02;17.90;99.00
16267;DHT22;8241;48.786;9.250;2022-08-23T02:27:29;17.80;99.20
16267;DHT22;8241;48.786;9.250;2022-08-23T02:29:56;17.80;99.40
16267;DHT22;8241;48.786;9.250;2022-08-23T02:32:24;17.80;99.50
16267;DHT22;8241;48.786;9.250;2022-08-23T02:34:51;17.80;99.30
16267;DHT22;8241;48.786;9.250;2022-08-23T02:37:18;17.80;99.40
16267;DHT22;8241;48.786;9.250;2022-08-23T02:39:45;17.80;99.60
16267;DHT22;8241;48.786;9.250;2022-08-23T02:42:13;17.80;99.70
16267;DHT22;8241;48.786;9.250;2022-08-23T02:44:42;17.70;99.80
16267;DHT22;8241;48.786;9.250;2022-08-23T02:47:09;17.80;99.90
16267;DHT22;8241;48.786;9.250;2022-08-23T02:49:41;17.70;99.90
16267;DHT22;8241;48.786;9.250;2022-08-23T02:52:08;17.70;99.90
16267;DHT22;8241;48.786;9.250;2022-08-23T02:54:35;17.70;99.90
16267;DHT22;8241;48.786;9.250;2022-08-23T02:57:03;17.70;99.80
16267;DHT22;8241;48.786;9.250;2022-08-23T02:59:30;17.70;99.60
16267;DHT22;8241;48.786;9.250;2022-08-23T03:01:57;17.60;99.70
16267;DHT22;8241;48.786;9.250;2022-08-23T03:04:29;17.60;99.60
16267;DHT22;8241;48.786;9.250;2022-08-23T03:06:58;17.60;99.70
16267;DHT22;8241;48.786;9.250;2022-08-23T03:09:25;17.50;99.80
16267;DHT22;8241;48.786;9.250;2022-08-23T03:11:52;17.40;99.90
16267;DHT22;8241;48.786;9.250;2022-08-23T03:14:21;17.50;99.80
16267;DHT22;8241;48.786;9.250;2022-08-23T03:16:50;17.50;99.80
16267;DHT22;8241;48.786;9.250;2022-08-23T03:19:17;17.40;99.90
16267;DHT22;8241;48.786;9.250;2022-08-23T03:21:44;17.40;99.90
16267;DHT22;8241;48.786;9.250;2022-08-23T03:24:13;17.40;99.90
16267;DHT22;8241;48.786;9.250;2022-08-23T03:26:41;17.50;99.90
16267;DHT22;8241;48.786;9.250;2022-08-23T03:29:08;17.30;99.90
16267;DHT22;8241;48.786;9.250;2022-08-23T03:31:51;17.40;99.90
16267;DHT22;8241;48.786;9.250;2022-08-23T03:34:18;17.40;99.90
16267;DHT22;8241;48.786;9.250;2022-08-23T03:36:45;17.30;99.90
16267;DHT22;8241;48.786;9.250;2022-08-23T03:39:14;17.30;99.90
16267;DHT22;8241;48.786;9.250;2022-08-23T03:41:42;17.20;99.90
16267;DHT22;8241;48.786;9.250;2022-08-23T03:44:09;17.20;99.90
16267;DHT22;8241;48.786;9.250;2022-08-23T03:46:39;17.30;99.90
16267;DHT22;8241;48.786;9.250;2022-08-23T03:49:07;17.20;99.90
16267;DHT22;8241;48.786;9.250;2022-08-23T03:51:43;17.20;99.90
16267;DHT22;8241;48.786;9.250;2022-08-23T03:54:10;17.00;99.90
16267;DHT22;8241;48.786;9.250;2022-08-23T03:56:49;16.90;99.90
16267;DHT22;8241;48.786;9.250;2022-08-23T03:59:16;16.80;99.90
16267;DHT22;8241;48.786;9.250;2022-08-23T04:01:44;16.80;99.90
16267;DHT22;8241;48.786;9.250;2022-08-23T04:04:12;16.60;99.90
16267;DHT22;8241;48.786;9.250;2022-08-23T04:06:51;16.70;99.90
16267;DHT22;8241;48.786;9.250;2022-08-23T04:09:18;16.80;99.90
16267;DHT22;8241;48.786;9.250;2022-08-23T04:11:48;16.80;99.90
16267;DHT22;8241;48.786;9.250;2022-08-23T04:14:15;16.90;99.90
16267;DHT22;8241;48.786;9.250;2022-08-23T04:16:44;16.90;99.90
16267;DHT22;8241;48.786;9.250;2022-08-23T04:19:13;17.00;99.90
16267;DHT22;8241;48.786;9.250;2022-08-23T04:21:55;16.90;99.90
16267;DHT22;8241;48.786;9.250;2022-08-23T04:24:25;16.90;99.90
16267;DHT22;8241;48.786;9.250;2022-08-23T04:26:53;16.80;99.90
16267;DHT22;8241;48.786;9.250;2022-08-23T04:29:20;16.90;99.90
16267;DHT22;8241;48.786;9.250;2022-08-23T04:31:48;16.90;99.90
16267;DHT22;8241;48.786;9.250;2022-08-23T04:34:16;16.80;99.90
16267;DHT22;8241;48.786;9.250;2022-08-23T04:36:43;16.90;99.90
16267;DHT22;8241;48.786;9.250;2022-08-23T04:39:10;16.80;99.90
16267;DHT22;8241;48.786;9.250;2022-08-23T04:41:43;16.70;99.90
16267;DHT22;8241;48.786;9.250;2022-08-23T04:44:30;16.60;99.90
16267;DHT22;8241;48.786;9.250;2022-08-23T04:47:01;16.40;99.90
16267;DHT22;8241;48.786;9.250;2022-08-23T04:49:30;16.40;99.90
16267;DHT22;8241;48.786;9.250;2022-08-23T04:51:59;16.50;99.90
16267;DHT22;8241;48.786;9.250;2022-08-23T04:54:26;16.60;99.90
16267;DHT22;8241;48.786;9.250;2022-08-23T04:57:14;16.60;99.90
16267;DHT22;8241;48.786;9.250;2022-08-23T04:59:44;16.60;99.90
16267;DHT22;8241;48.786;9.250;2022-08-23T05:02:12;16.60;99.90
16267;DHT22;8241;48.786;9.250;2022-08-23T05:04:39;16.70;99.90
16267;DHT22;8241;48.786;9.250;2022-08-23T05:07:08;16.70;99.90
16267;DHT22;8241;48.786;9.250;2022-08-23T05:09:35;16.60;99.90
16267;DHT22;8241;48.786;9.250;2022-08-23T05:12:04;16.50;99.90
16267;DHT22;8241;48.786;9.250;2022-08-23T05:14:37;16.50;99.90
16267;DHT22;8241;48.786;9.250;2022-08-23T05:17:13;16.60;99.90
16267;DHT22;8241;48.786;9.250;2022-08-23T05:19:40;16.60;99.90
16267;DHT22;8241;48.786;9.250;2022-08-23T05:22:12;16.50;99.90
16267;DHT22;8241;48.786;9.250;2022-08-23T05:25:03;16.50;99.90
16267;DHT22;8241;48.786;9.250;2022-08-23T05:27:31;16.50;99.90
16267;DHT22;8241;48.786;9.250;2022-08-23T05:29:58;16.40;99.90
16267;DHT22;8241;48.786;9.250;2022-08-23T05:32:27;16.50;99.90
16267;DHT22;8241;48.786;9.250;2022-08-23T05:34:54;16.40;99.90
16267;DHT22;8241;48.786;9.250;2022-08-23T05:37:23;16.50;99.90
16267;DHT22;8241;48.786;9.250;2022-08-23T05:39:51;16.50;99.90
16267;DHT22;8241;48.786;9.250;2022-08-23T05:42:20;16.60;99.90
16267;DHT22;8241;48.786;9.250;2022-08-23T05:44:47;16.50;99.90
16267;DHT22;8241;48.786;9.250;2022-08-23T05:47:16;16.50;99.90
16267;DHT22;8241;48.786;9.250;2022-08-23T05:49:53;16.60;99.90
16267;DHT22;8241;48.786;9.250;2022-08-23T05:52:21;16.70;99.90
16267;DHT22;8241;48.786;9.250;2022-08-23T05:54:50;16.70;99.90
16267;DHT22;8241;48.786;9.250;2022-08-23T05:57:41;16.80;99.90
16267;DHT22;8241;48.786;9.250;2022-08-23T06:00:10;16.90;99.90
16267;DHT22;8241;48.786;9.250;2022-08-23T06:02:45;16.90;99.90
16267;DHT22;8241;48.786;9.250;2022-08-23T06:05:15;16.90;99.90
16267;DHT22;8241;48.786;9.250;2022-08-23T06:07:43;17.00;99.90
16267;DHT22;8241;48.786;9.250;2022-08-23T06:10:10;17.10;99.90
16267;DHT22;8241;48.786;9.250;2022-08-23T06:12:38;17.20;99.90
16267;DHT22;8241;48.786;9.250;2022-08-23T06:15:08;17.20;99.90
16267;DHT22;8241;48.786;9.250;2022-08-23T06:17:35;17.30;99.90
16267;DHT22;8241;48.786;9.250;2022-08-23T06:20:04;17.40;99.90
16267;DHT22;8241;48.786;9.250;2022-08-23T06:22:38;17.50;99.90
16267;DHT22;8241;48.786;9.250;2022-08-23T06:25:06;17.70;99.90
16267;DHT22;8241;48.786;9.250;2022-08-23T06:27:45;17.90;99.90
16267;DHT22;8241;48.786;9.250;2022-08-23T06:30:13;18.20;99.90
16267;DHT22;8241;48.786;9.250;2022-08-23T06:32:42;18.50;99.90
16267;DHT22;8241;48.786;9.250;2022-08-23T06:35:28;18.80;99.20
16267;DHT22;8241;48.786;9.250;2022-08-23T06:38:17;19.20;98.40
16267;DHT22;8241;48.786;9.250;2022-08-23T06:40:48;19.60;97.80
16267;DHT22;8241;48.786;9.250;2022-08-23T06:43:28;19.90;97.20
16267;DHT22;8241;48.786;9.250;2022-08-23T06:46:20;20.20;96.80
16267;DHT22;8241;48.786;9.250;2022-08-23T06:48:48;20.60;96.10
16267;DHT22;8241;48.786;9.250;2022-08-23T06:51:22;20.70;95.70
16267;DHT22;8241;48.786;9.250;2022-08-23T06:54:18;20.90;95.40
16267;DHT22;8241;48.786;9.250;2022-08-23T06:57:14;21.10;95.10
16267;DHT22;8241;48.786;9.250;2022-08-23T07:00:00;21.40;94.80
16267;DHT22;8241;48.786;9.250;2022-08-23T07:02:49;21.40;94.40
16267;DHT22;8241;48.786;9.250;2022-08-23T07:05:36;22.00;94.20
16267;DHT22;8241;48.786;9.250;2022-08-23T07:08:25;22.30;93.80
16267;DHT22;8241;48.786;9.250;2022-08-23T07:10:55;22.00;94.00
16267;DHT22;8241;48.786;9.250;2022-08-23T07:13:22;22.50;93.30
16267;DHT22;8241;48.786;9.250;2022-08-23T07:15:49;22.60;93.50
16267;DHT22;8241;48.786;9.250;2022-08-23T07:18:16;22.90;92.40
16267;DHT22;8241;48.786;9.250;2022-08-23T07:20:43;23.20;92.30
16267;DHT22;8241;48.786;9.250;2022-08-23T07:23:10;23.30;92.10
16267;DHT22;8241;48.786;9.250;2022-08-23T07:25:38;23.60;91.80
16267;DHT22;8241;48.786;9.250;2022-08-23T07:28:10;23.80;91.70
16267;DHT22;8241;48.786;9.250;2022-08-23T07:30:41;24.00;91.30
16267;DHT22;8241;48.786;9.250;2022-08-23T07:33:08;24.00;91.30
16267;DHT22;8241;48.786;9.250;2022-08-23T07:35:56;24.40;90.90
16267;DHT22;8241;48.786;9.250;2022-08-23T07:38:22;24.60;90.30
16267;DHT22;8241;48.786;9.250;2022-08-23T07:40:50;24.90;90.10
16267;DHT22;8241;48.786;9.250;2022-08-23T07:43:19;25.40;89.10
16267;DHT22;8241;48.786;9.250;2022-08-23T07:45:47;25.30;89.60
16267;DHT22;8241;48.786;9.250;2022-08-23T07:48:14;25.30;88.80
16267;DHT22;8241;48.786;9.250;2022-08-23T07:51:01;25.60;88.50
16267;DHT22;8241;48.786;9.250;2022-08-23T07:53:29;26.00;87.90
16267;DHT22;8241;48.786;9.250;2022-08-23T07:55:56;26.20;86.80
16267;DHT22;8241;48.786;9.250;2022-08-23T07:58:50;26.20;86.80
16267;DHT22;8241;48.786;9.250;2022-08-23T08:01:32;25.60;88.30
16267;DHT22;8241;48.786;9.250;2022-08-23T08:04:01;26.30;86.90
16267;DHT22;8241;48.786;9.250;2022-08-23T08:06:33;26.60;85.90
16267;DHT22;8241;48.786;9.250;2022-08-23T08:09:02;26.70;85.40
16267;DHT22;8241;48.786;9.250;2022-08-23T08:11:32;26.60;84.40
16267;DHT22;8241;48.786;9.250;2022-08-23T08:14:04;26.60;85.10
16267;DHT22;8241;48.786;9.250;2022-08-23T08:16:33;27.30;83.10
16267;DHT22;8241;48.786;9.250;2022-08-23T08:19:05;26.90;83.50
16267;DHT22;8241;48.786;9.250;2022-08-23T08:22:01;27.60;81.70
16267;DHT22;8241;48.786;9.250;2022-08-23T08:25:07;27.90;81.20
16267;DHT22;8241;48.786;9.250;2022-08-23T08:27:35;28.30;80.70
16267;DHT22;8241;48.786;9.250;2022-08-23T08:30:05;28.10;79.90
16267;DHT22;8241;48.786;9.250;2022-08-23T08:32:32;28.60;80.40
16267;DHT22;8241;48.786;9.250;2022-08-23T08:35:00;28.80;79.80
16267;DHT22;8241;48.786;9.250;2022-08-23T08:37:27;29.10;78.60
16267;DHT22;8241;48.786;9.250;2022-08-23T08:39:55;29.30;78.70
16267;DHT22;8241;48.786;9.250;2022-08-23T08:42:35;29.50;77.80
16267;DHT22;8241;48.786;9.250;2022-08-23T08:45:11;29.80;76.90
16267;DHT22;8241;48.786;9.250;2022-08-23T08:47:44;30.10;75.70
16267;DHT22;8241;48.786;9.250;2022-08-23T08:50:17;29.80;76.50
16267;DHT22;8241;48.786;9.250;2022-08-23T08:52:49;30.10;75.40
16267;DHT22;8241;48.786;9.250;2022-08-23T08:55:35;30.70;74.50
16267;DHT22;8241;48.786;9.250;2022-08-23T08:58:05;31.00;72.90
16267;DHT22;8241;48.786;9.250;2022-08-23T09:00:37;30.80;73.20
16267;DHT22;8241;48.786;9.250;2022-08-23T09:03:12;31.00;73.10
16267;DHT22;8241;48.786;9.250;2022-08-23T09:05:47;30.70;72.30
16267;DHT22;8241;48.786;9.250;2022-08-23T09:08:34;30.10;74.10
16267;DHT22;8241;48.786;9.250;2022-08-23T09:11:08;30.70;73.20
16267;DHT22;8241;48.786;9.250;2022-08-23T09:13:51;31.30;71.40
16267;DHT22;8241;48.786;9.250;2022-08-23T09:16:31;31.10;72.30
16267;DHT22;8241;48.786;9.250;2022-08-23T09:19:02;31.80;70.20
16267;DHT22;8241;48.786;9.250;2022-08-23T09:21:37;31.20;70.40
16267;DHT22;8241;48.786;9.250;2022-08-23T09:24:07;31.20;71.00
16267;DHT22;8241;48.786;9.250;2022-08-23T09:26:44;31.50;69.80
16267;DHT22;8241;48.786;9.250;2022-08-23T09:29:23;31.40;69.20
16267;DHT22;8241;48.786;9.250;2022-08-23T09:31:54;32.00;68.40
16267;DHT22;8241;48.786;9.250;2022-08-23T09:34:38;31.50;67.80
16267;DHT22;8241;48.786;9.250;2022-08-23T09:37:16;31.40;69.20
16267;DHT22;8241;48.786;9.250;2022-08-23T09:39:49;32.30;68.70
16267;DHT22;8241;48.786;9.250;2022-08-23T09:42:27;32.60;66.30
16267;DHT22;8241;48.786;9.250;2022-08-23T09:44:55;32.70;66.10
16267;DHT22;8241;48.786;9.250;2022-08-23T09:47:30;32.30;66.50
16267;DHT22;8241;48.786;9.250;2022-08-23T09:50:07;31.90;68.20
16267;DHT22;8241;48.786;9.250;2022-08-23T09:52:37;32.50;65.20
16267;DHT22;8241;48.786;9.250;2022-08-23T09:55:10;33.20;64.10
16267;DHT22;8241;48.786;9.250;2022-08-23T09:57:46;33.60;63.80
16267;DHT22;8241;48.786;9.250;2022-08-23T10:00:22;33.50;63.20
16267;DHT22;8241;48.786;9.250;2022-08-23T10:02:53;33.60;63.30
16267;DHT22;8241;48.786;9.250;2022-08-23T10:05:29;33.40;62.10
16267;DHT22;8241;48.786;9.250;2022-08-23T10:07:58;33.60;63.30
16267;DHT22;8241;48.786;9.250;2022-08-23T10:10:31;34.00;61.30
16267;DHT22;8241;48.786;9.250;2022-08-23T10:13:03;34.00;61.30
16267;DHT22;8241;48.786;9.250;2022-08-23T10:15:42;34.20;61.20
16267;DHT22;8241;48.786;9.250;2022-08-23T10:18:25;33.80;61.00
16267;DHT22;8241;48.786;9.250;2022-08-23T10:21:03;33.20;60.40
16267;DHT22;8241;48.786;9.250;2022-08-23T10:23:42;33.00;62.30
16267;DHT22;8241;48.786;9.250;2022-08-23T10:26:23;33.10;63.10
16267;DHT22;8241;48.786;9.250;2022-08-23T10:28:57;32.90;60.00
16267;DHT22;8241;48.786;9.250;2022-08-23T10:31:48;32.20;60.60
16267;DHT22;8241;48.786;9.250;2022-08-23T10:34:42;31.40;61.10
16267;DHT22;8241;48.786;9.250;2022-08-23T10:37:33;30.70;63.50
16267;DHT22;8241;48.786;9.250;2022-08-23T10:40:14;30.40;65.20
16267;DHT22;8241;48.786;9.250;2022-08-23T10:42:50;30.60;64.30
16267;DHT22;8241;48.786;9.250;2022-08-23T10:45:25;30.50;64.00
16267;DHT22;8241;48.786;9.250;2022-08-23T10:48:09;30.40;63.70
16267;DHT22;8241;48.786;9.250;2022-08-23T10:50:45;30.10;64.10
16267;DHT22;8241;48.786;9.250;2022-08-23T10:53:15;30.10;65.10
16267;DHT22;8241;48.786;9.250;2022-08-23T10:55:46;30.10;63.90
16267;DHT22;8241;48.786;9.250;2022-08-23T10:58:38;30.10;65.30
16267;DHT22;8241;48.786;9.250;2022-08-23T11:01:07;29.60;65.90
16267;DHT22;8241;48.786;9.250;2022-08-23T11:03:42;29.40;67.60
16267;DHT22;8241;48.786;9.250;2022-08-23T11:09:37;30.00;66.40
16267;DHT22;8241;48.786;9.250;2022-08-23T11:12:19;30.10;66.80
16267;DHT22;8241;48.786;9.250;2022-08-23T11:17:55;30.10;65.80
16267;DHT22;8241;48.786;9.250;2022-08-23T11:20:55;29.60;66.10
16267;DHT22;8241;48.786;9.250;2022-08-23T11:23:52;29.80;66.40
16267;DHT22;8241;48.786;9.250;2022-08-23T11:29:33;30.40;65.30
16267;DHT22;8241;48.786;9.250;2022-08-23T11:32:34;30.60;65.20
16267;DHT22;8241;48.786;9.250;2022-08-23T11:35:11;30.70;64.60
16267;DHT22;8241;48.786;9.250;2022-08-23T11:37:58;30.90;65.30
16267;DHT22;8241;48.786;9.250;2022-08-23T11:43:36;30.40;65.60
16267;DHT22;8241;48.786;9.250;2022-08-23T11:46:30;30.80;65.50
16267;DHT22;8241;48.786;9.250;2022-08-23T11:59:11;31.20;64.80
16267;DHT22;8241;48.786;9.250;2022-08-23T12:01:41;30.90;65.20
16267;DHT22;8241;48.786;9.250;2022-08-23T12:04:12;31.10;64.90
16267;DHT22;8241;48.786;9.250;2022-08-23T12:06:53;31.20;64.20
16267;DHT22;8241;48.786;9.250;2022-08-23T12:09:51;31.30;65.80
16267;DHT22;8241;48.786;9.250;2022-08-23T12:12:31;31.60;64.50
16267;DHT22;8241;48.786;9.250;2022-08-23T12:15:01;31.30;64.10
16267;DHT22;8241;48.786;9.250;2022-08-23T12:18:11;31.70;64.60
16267;DHT22;8241;48.786;9.250;2022-08-23T12:20:44;31.90;64.60
16267;DHT22;8241;48.786;9.250;2022-08-23T12:23:17;32.00;62.50
16267;DHT22;8241;48.786;9.250;2022-08-23T12:26:04;31.70;62.60
16267;DHT22;8241;48.786;9.250;2022-08-23T12:28:36;31.20;63.00
16267;DHT22;8241;48.786;9.250;2022-08-23T12:31:16;30.80;64.20
16267;DHT22;8241;48.786;9.250;2022-08-23T12:33:59;31.30;64.00
16267;DHT22;8241;48.786;9.250;2022-08-23T12:36:33;31.60;63.20
16267;DHT22;8241;48.786;9.250;2022-08-23T12:39:21;32.10;62.70
16267;DHT22;8241;48.786;9.250;2022-08-23T12:41:53;32.40;62.80
16267;DHT22;8241;48.786;9.250;2022-08-23T12:44:23;32.10;61.10
16267;DHT22;8241;48.786;9.250;2022-08-23T12:46:57;32.40;63.10
16267;DHT22;8241;48.786;9.250;2022-08-23T12:49:40;33.00;61.20
16267;DHT22;8241;48.786;9.250;2022-08-23T12:52:11;32.50;60.80
16267;DHT22;8241;48.786;9.250;2022-08-23T12:54:40;33.20;60.10
16267;DHT22;8241;48.786;9.250;2022-08-23T12:57:14;34.30;59.90
16267;DHT22;8241;48.786;9.250;2022-08-23T12:59:50;35.40;58.10
16267;DHT22;8241;48.786;9.250;2022-08-23T13:02:25;35.90;57.50
16267;DHT22;8241;48.786;9.250;2022-08-23T13:04:56;36.70;55.90
16267;DHT22;8241;48.786;9.250;2022-08-23T13:07:31;37.70;55.20
16267;DHT22;8241;48.786;9.250;2022-08-23T13:09:58;40.00;53.70
16267;DHT22;8241;48.786;9.250;2022-08-23T13:12:26;41.40;52.40
16267;DHT22;8241;48.786;9.250;2022-08-23T13:14:54;42.50;50.70
16267;DHT22;8241;48.786;9.250;2022-08-23T13:17:36;42.50;50.60
16267;DHT22;8241;48.786;9.250;2022-08-23T13:20:21;44.40;49.10
16267;DHT22;8241;48.786;9.250;2022-08-23T13:23:00;45.20;48.00
16267;DHT22;8241;48.786;9.250;2022-08-23T13:25:38;44.30;48.00
16267;DHT22;8241;48.786;9.250;2022-08-23T13:28:24;43.50;47.90
16267;DHT22;8241;48.786;9.250;2022-08-23T13:30:59;43.80;47.80
16267;DHT22;8241;48.786;9.250;2022-08-23T13:33:28;43.00;49.10
16267;DHT22;8241;48.786;9.250;2022-08-23T13:36:08;43.10;48.80
16267;DHT22;8241;48.786;9.250;2022-08-23T13:38:36;43.40;48.00
16267;DHT22;8241;48.786;9.250;2022-08-23T13:41:08;43.60;48.00
16267;DHT22;8241;48.786;9.250;2022-08-23T13:43:45;42.80;48.60
16267;DHT22;8241;48.786;9.250;2022-08-23T13:46:16;43.20;48.20
16267;DHT22;8241;48.786;9.250;2022-08-23T13:48:48;43.20;48.10
16267;DHT22;8241;48.786;9.250;2022-08-23T13:51:22;41.90;49.20
16267;DHT22;8241;48.786;9.250;2022-08-23T13:53:49;41.90;49.50
16267;DHT22;8241;48.786;9.250;2022-08-23T13:56:18;40.70;50.30
16267;DHT22;8241;48.786;9.250;2022-08-23T13:58:54;40.90;50.40
16267;DHT22;8241;48.786;9.250;2022-08-23T14:01:22;39.80;51.00
16267;DHT22;8241;48.786;9.250;2022-08-23T14:03:52;38.60;52.00
16267;DHT22;8241;48.786;9.250;2022-08-23T14:06:20;39.20;52.90
16267;DHT22;8241;48.786;9.250;2022-08-23T14:08:49;40.50;50.90
16267;DHT22;8241;48.786;9.250;2022-08-23T14:11:25;41.00;50.10
16267;DHT22;8241;48.786;9.250;2022-08-23T14:13:56;41.30;50.70
16267;DHT22;8241;48.786;9.250;2022-08-23T14:16:27;41.20;49.70
16267;DHT22;8241;48.786;9.250;2022-08-23T14:18:57;42.60;49.20
16267;DHT22;8241;48.786;9.250;2022-08-23T14:21:24;42.30;48.60
16267;DHT22;8241;48.786;9.250;2022-08-23T14:23:51;42.00;49.40
16267;DHT22;8241;48.786;9.250;2022-08-23T14:26:19;41.80;49.50
16267;DHT22;8241;48.786;9.250;2022-08-23T14:28:49;42.70;48.50
16267;DHT22;8241;48.786;9.250;2022-08-23T14:31:16;40.20;49.00
16267;DHT22;8241;48.786;9.250;2022-08-23T14:33:44;38.10;51.50
16267;DHT22;8241;48.786;9.250;2022-08-23T14:36:13;39.10;51.80
16267;DHT22;8241;48.786;9.250;2022-08-23T14:38:42;38.40;51.70
16267;DHT22;8241;48.786;9.250;2022-08-23T14:41:18;38.40;52.10
16267;DHT22;8241;48.786;9.250;2022-08-23T14:43:47;39.40;51.20
16267;DHT22;8241;48.786;9.250;2022-08-23T14:46:14;40.10;50.60
16267;DHT22;8241;48.786;9.250;2022-08-23T14:48:41;39.70;50.50
16267;DHT22;8241;48.786;9.250;2022-08-23T14:51:25;40.70;49.80
16267;DHT22;8241;48.786;9.250;2022-08-23T14:53:52;40.90;49.00
16267;DHT22;8241;48.786;9.250;2022-08-23T14:56:21;40.30;49.50
16267;DHT22;8241;48.786;9.250;2022-08-23T14:58:48;39.00;51.00
16267;DHT22;8241;48.786;9.250;2022-08-23T15:01:18;37.20;53.10
16267;DHT22;8241;48.786;9.250;2022-08-23T15:03:45;38.80;52.20
16267;DHT22;8241;48.786;9.250;2022-08-23T15:06:14;40.10;50.70
16267;DHT22;8241;48.786;9.250;2022-08-23T15:08:43;41.10;49.40
16267;DHT22;8241;48.786;9.250;2022-08-23T15:11:12;41.90;49.70
16267;DHT22;8241;48.786;9.250;2022-08-23T15:13:40;42.10;48.70
16267;DHT22;8241;48.786;9.250;2022-08-23T15:16:08;42.70;48.10
16267;DHT22;8241;48.786;9.250;2022-08-23T15:18:38;42.80;48.20
16267;DHT22;8241;48.786;9.250;2022-08-23T15:21:05;42.10;48.90
16267;DHT22;8241;48.786;9.250;2022-08-23T15:23:34;39.60;50.80
16267;DHT22;8241;48.786;9.250;2022-08-23T15:26:03;37.20;53.30
16267;DHT22;8241;48.786;9.250;2022-08-23T15:28:31;35.30;55.60
16267;DHT22;8241;48.786;9.250;2022-08-23T15:31:00;33.20;58.20
16267;DHT22;8241;48.786;9.250;2022-08-23T15:33:27;32.40;59.50
16267;DHT22;8241;48.786;9.250;2022-08-23T15:35:57;32.40;59.70
16267;DHT22;8241;48.786;9.250;2022-08-23T15:38:27;32.30;59.80
16267;DHT22;8241;48.786;9.250;2022-08-23T15:40:57;31.80;61.20
16267;DHT22;8241;48.786;9.250;2022-08-23T15:43:29;32.10;60.30
16267;DHT22;8241;48.786;9.250;2022-08-23T15:45:57;31.90;60.70
16267;DHT22;8241;48.786;9.250;2022-08-23T15:48:27;32.10;60.60
16267;DHT22;8241;48.786;9.250;2022-08-23T15:50:57;31.70;60.90
16267;DHT22;8241;48.786;9.250;2022-08-23T15:53:25;31.00;62.00
16267;DHT22;8241;48.786;9.250;2022-08-23T15:55:52;30.40;62.80
16267;DHT22;8241;48.786;9.250;2022-08-23T15:58:21;30.60;63.10
16267;DHT22;8241;48.786;9.250;2022-08-23T16:00:51;30.90;62.90
16267;DHT22;8241;48.786;9.250;2022-08-23T16:03:25;32.00;61.20
16267;DHT22;8241;48.786;9.250;2022-08-23T16:05:53;32.60;59.80
16267;DHT22;8241;48.786;9.250;2022-08-23T16:08:31;32.90;59.40
16267;DHT22;8241;48.786;9.250;2022-08-23T16:10:59;32.70;59.10
16267;DHT22;8241;48.786;9.250;2022-08-23T16:13:31;32.20;59.50
16267;DHT22;8241;48.786;9.250;2022-08-23T16:16:01;31.40;60.80
16267;DHT22;8241;48.786;9.250;2022-08-23T16:18:30;30.80;62.30
16267;DHT22;8241;48.786;9.250;2022-08-23T16:21:00;30.50;62.30
16267;DHT22;8241;48.786;9.250;2022-08-23T16:23:34;30.40;63.10
16267;DHT22;8241;48.786;9.250;2022-08-23T16:26:02;30.60;63.00
16267;DHT22;8241;48.786;9.250;2022-08-23T16:28:30;30.30;62.50
16267;DHT22;8241;48.786;9.250;2022-08-23T16:30:57;30.30;63.00
16267;DHT22;8241;48.786;9.250;2022-08-23T16:33:25;29.90;63.90
16267;DHT22;8241;48.786;9.250;2022-08-23T16:35:52;29.80;64.00
16267;DHT22;8241;48.786;9.250;2022-08-23T16:38:20;29.70;64.40
16267;DHT22;8241;48.786;9.250;2022-08-23T16:40:46;29.50;65.30
16267;DHT22;8241;48.786;9.250;2022-08-23T16:43:13;29.60;63.40